TimeEDT,TemperatureF,Dew PointF,Humidity,Sea Level PressureIn,VisibilityMPH,Wind Direction,Wind SpeedMPH,Gust SpeedMPH,PrecipitationIn,Events,Conditions,WindDirDegrees,DateUTC
12:51 AM,42.8,28.4,57,30.37,10.0,East,5.8,-,N/A,,Clear,100,2012-10-13 04:51:00
1:51 AM,42.8,28.4,57,30.35,10.0,East,8.1,-,N/A,,Clear,100,2012-10-13 05:51:00
2:51 AM,42.8,28.4,57,30.33,10.0,ESE,8.1,-,N/A,,Clear,110,2012-10-13 06:51:00
3:51 AM,42.1,30.0,62,30.34,10.0,East,6.9,-,N/A,,Clear,100,2012-10-13 07:51:00
4:51 AM,42.1,30.0,62,30.34,10.0,ESE,9.2,-,N/A,,Clear,120,2012-10-13 08:51:00
5:51 AM,39.9,30.0,68,30.33,10.0,ESE,8.1,-,N/A,,Clear,120,2012-10-13 09:51:00
6:51 AM,39.2,30.2,70,30.32,10.0,East,3.5,-,N/A,,Partly Cloudy,100,2012-10-13 10:51:00
7:51 AM,39.0,30.9,73,30.32,10.0,ESE,5.8,-,N/A,,Mostly Cloudy,110,2012-10-13 11:51:00
8:51 AM,44.1,33.1,65,30.33,10.0,ESE,4.6,-,N/A,,Mostly Cloudy,120,2012-10-13 12:51:00
9:51 AM,48.9,34.0,56,30.31,10.0,SE,11.5,-,N/A,,Scattered Clouds,140,2012-10-13 13:51:00
10:51 AM,53.1,37.9,57,30.29,10.0,SE,10.4,-,N/A,,Scattered Clouds,140,2012-10-13 14:51:00
11:51 AM,59.0,39.9,49,30.26,10.0,SSE,8.1,-,N/A,,Mostly Cloudy,150,2012-10-13 15:51:00
12:51 PM,64.0,43.0,46,30.23,10.0,SSE,5.8,-,N/A,,Mostly Cloudy,160,2012-10-13 16:51:00
1:51 PM,68.0,44.6,43,30.19,10.0,South,12.7,-,N/A,,Mostly Cloudy,170,2012-10-13 17:51:00
2:51 PM,70.0,48.0,46,30.15,10.0,SSE,15.0,-,N/A,,Mostly Cloudy,160,2012-10-13 18:51:00
3:51 PM,69.1,46.0,44,30.13,10.0,South,10.4,-,N/A,,Overcast,170,2012-10-13 19:51:00
4:51 PM,70.0,46.0,42,30.11,10.0,South,11.5,-,N/A,,Overcast,180,2012-10-13 20:51:00
5:51 PM,70.0,46.9,44,30.09,10.0,South,12.7,-,N/A,,Overcast,170,2012-10-13 21:51:00
6:51 PM,69.8,48.2,46,30.08,10.0,South,11.5,-,N/A,,Overcast,170,2012-10-13 22:51:00
7:51 PM,69.1,50.0,51,30.08,10.0,South,11.5,-,N/A,,Overcast,170,2012-10-13 23:51:00
8:51 PM,68.0,51.1,55,30.07,10.0,South,10.4,-,N/A,,Overcast,170,2012-10-14 00:51:00
9:51 PM,69.8,51.8,53,30.04,10.0,South,13.8,21.9,N/A,,Overcast,170,2012-10-14 01:51:00
10:51 PM,68.0,53.1,59,30.04,10.0,South,11.5,-,N/A,,Overcast,190,2012-10-14 02:51:00
11:51 PM,68.0,53.6,60,30.04,10.0,South,10.4,-,N/A,,Mostly Cloudy,190,2012-10-14 03:51:00